»·PEaware :: N162PT KSBD-KEMT

N162PT :: KSBD-KEMT

FLIGHT INFORMATION

Flight Status: Arrived
Operator: Privately registered:
United States
More flights under this callsign
Pilot: Anonymous 16342 (16342)
Aircraft: CESSNA 172 SKYHAWK
(C172)
More flights by this aircraft type
Origin: KSBD San Bernardino Intl
United States
Destination: KEMT El Monte
United States
More flights between these airports :: More routes between these airports
Route:
File this flight plan on PilotEdge
Remarks: Cat 07
Altitude:
(Current/Filed)
4,500ft
Speed:
(Current/Filed)
110kts
Departed: 06-Jun-18 07:47 AM
Arrived: 06-Jun-18 08:18 AM
Distance/Time
Traveled:
130nm/0:31
Distance/Time
To Go:
Arrived

Flight Plot

Page will automatically refresh every two minutes.


Map Options




Map Legend


Flown Route
Filed Route
Departure Airport
Arrival Airport
Navaid (VOR, NDB)
Fix

Horizontal Profiles

Position Reports

Time Latitude Longitude Heading Altitude Ground
Speed
06-Jun-18 07:33 34.102165 -117.224730 93 1136ft 0kts
06-Jun-18 07:34 34.102165 -117.224730 93 1136ft 0kts
06-Jun-18 07:35 34.102165 -117.224730 93 1136ft 0kts
06-Jun-18 07:36 34.102165 -117.224730 93 1136ft 0kts
06-Jun-18 07:37 34.102165 -117.224730 93 1136ft 0kts
06-Jun-18 07:38 34.102155 -117.224668 110 1136ft 4kts
06-Jun-18 07:39 34.099092 -117.228255 250 1136ft 23kts
06-Jun-18 07:40 34.096725 -117.236130 251 1136ft 26kts
06-Jun-18 07:41 34.094346 -117.244303 251 1136ft 25kts
06-Jun-18 07:42 34.091627 -117.250785 157 1136ft 13kts
06-Jun-18 07:43 34.091517 -117.250729 156 1136ft 0kts
06-Jun-18 07:44 34.091517 -117.250729 156 1136ft 0kts
06-Jun-18 07:45 34.091517 -117.250729 156 1136ft 0kts
06-Jun-18 07:46 34.090973 -117.249805 89 1136ft 20kts
06-Jun-18 07:47 34.095737 -117.232950 67 1387ft 80kts
06-Jun-18 07:48 34.103001 -117.206811 68 2182ft 83kts
06-Jun-18 07:49 34.111644 -117.176373 69 2501ft 116kts
06-Jun-18 07:50 34.134339 -117.164288 305 2491ft 114kts
06-Jun-18 07:51 34.141173 -117.200432 281 2497ft 109kts
06-Jun-18 07:52 34.142180 -117.236556 272 2499ft 106kts
06-Jun-18 07:53 34.142118 -117.268355 271 2969ft 81kts
06-Jun-18 07:54 34.141851 -117.291038 271 3609ft 78kts
06-Jun-18 07:55 34.141772 -117.311560 274 4168ft 77kts
06-Jun-18 07:56 34.141559 -117.341881 261 4502ft 112kts
06-Jun-18 07:57 34.137006 -117.380473 262 4499ft 111kts
06-Jun-18 07:58 34.132816 -117.415926 262 4499ft 107kts
06-Jun-18 07:59 34.128683 -117.450890 262 4499ft 106kts
06-Jun-18 08:00 34.125266 -117.479815 262 4500ft 106kts
06-Jun-18 08:01 34.122049 -117.514704 267 4499ft 106kts
06-Jun-18 08:02 34.120468 -117.549838 267 4499ft 106kts
06-Jun-18 08:03 34.118973 -117.584965 268 4499ft 106kts
06-Jun-18 08:04 34.117908 -117.620151 268 4500ft 106kts
06-Jun-18 08:05 34.116865 -117.654770 267 4500ft 106kts
06-Jun-18 08:06 34.115839 -117.689009 267 4499ft 106kts
06-Jun-18 08:07 34.114796 -117.723889 267 4499ft 106kts
06-Jun-18 08:08 34.113758 -117.758700 267 4499ft 106kts
06-Jun-18 08:09 34.112707 -117.794083 267 4499ft 106kts
06-Jun-18 08:10 34.111665 -117.829251 267 4499ft 106kts
06-Jun-18 08:11 34.110548 -117.867382 268 4083ft 128kts
06-Jun-18 08:12 34.109439 -117.906510 268 3399ft 115kts
06-Jun-18 08:13 34.106161 -117.943873 250 2621ft 115kts
06-Jun-18 08:14 34.094399 -117.978092 245 1611ft 107kts
06-Jun-18 08:15 34.085937 -118.008360 257 1040ft 88kts
06-Jun-18 08:16 34.102607 -118.011087 359 849ft 79kts
06-Jun-18 08:17 34.095246 -118.029501 205 502ft 82kts
06-Jun-18 08:18 34.083543 -118.036242 203 296ft 11kts
06-Jun-18 08:19 34.083082 -118.036024 116 296ft 0kts
06-Jun-18 08:20 34.084104 -118.034895 114 296ft 10kts
06-Jun-18 08:21 34.084138 -118.034651 30 296ft 0kts
06-Jun-18 08:22 34.084138 -118.034651 30 296ft 0kts
06-Jun-18 08:29 34.422664 -119.835594 340 14ft 0kts
06-Jun-18 08:30 34.422664 -119.835594 340 14ft 0kts

Navigation Log

Ident Type
Flight plan parsing failed, navigation log unavailable